DGAIG EHRD-EGPH
Flight info
| Callsign | DGAIG |
|---|---|
| Flight time | 2h 32m |
| Altitude | 20000 |
| Route | TUL4AY TULIP L74 MONIL P1 SUPUR L602 EMLON M79 TENDO DCT TIPTA DCT AGPED |
| Aircraft | DA62/L-SDGPRY/S |
Departure
| Time | 2026-05-05 12:02 |
|---|---|
| Airport | Rotterdam The Hague Airport (EHRD) |
Arrival
| Time | 2026-05-05 14:35 |
|---|---|
| Airport | Edinburgh Airport (EGPH) |
| Time | Latitude | Longitude | Altitude | Speed | Heading |
|---|---|---|---|---|---|
| 2026-05-05 11:40 | 51.95118 | 4.43479 | -5 ft | 0 kts | 327° |
| 2026-05-05 11:56 | 51.95126 | 4.43471 | -5 ft | 2 kts | 326° |
| 2026-05-05 11:57 | 51.95140 | 4.43457 | -5 ft | 2 kts | 339° |
| 2026-05-05 11:57 | 51.95152 | 4.43460 | -5 ft | 2 kts | 36° |
| 2026-05-05 11:57 | 51.95168 | 4.43490 | -5 ft | 3 kts | 38° |
| 2026-05-05 11:57 | 51.95210 | 4.43469 | -5 ft | 10 kts | 327° |
| 2026-05-05 11:58 | 51.95242 | 4.43387 | -5 ft | 10 kts | 222° |
| 2026-05-05 11:58 | 51.95236 | 4.43379 | -5 ft | 0 kts | 219° |
| 2026-05-05 11:59 | 51.95226 | 4.43361 | -5 ft | 9 kts | 234° |
| 2026-05-05 11:59 | 51.95171 | 4.43219 | -5 ft | 16 kts | 238° |
| 2026-05-05 11:59 | 51.95174 | 4.43097 | -4 ft | 10 kts | 347° |
| 2026-05-05 12:00 | 51.95246 | 4.43101 | -4 ft | 11 kts | 3° |
| 2026-05-05 12:00 | 51.95325 | 4.43123 | -4 ft | 10 kts | 30° |
| 2026-05-05 12:00 | 51.95341 | 4.43150 | -4 ft | 0 kts | 56° |
| 2026-05-05 12:01 | 51.95342 | 4.43152 | -4 ft | 5 kts | 56° |
| 2026-05-05 12:01 | 51.95479 | 4.43491 | -6 ft | 63 kts | 55° |
| 2026-05-05 12:01 | 51.95788 | 4.44257 | 25 ft | 94 kts | 57° |
| 2026-05-05 12:01 | 51.96147 | 4.45198 | 190 ft | 99 kts | 56° |
| 2026-05-05 12:02 | 51.96548 | 4.46180 | 392 ft | 109 kts | 56° |
| 2026-05-05 12:02 | 51.96971 | 4.47239 | 633 ft | 114 kts | 56° |
| 2026-05-05 12:02 | 51.97423 | 4.48417 | 753 ft | 131 kts | 57° |
| 2026-05-05 12:02 | 51.97858 | 4.49751 | 996 ft | 136 kts | 60° |
| 2026-05-05 12:03 | 51.98279 | 4.51144 | 1217 ft | 138 kts | 56° |
| 2026-05-05 12:03 | 51.98922 | 4.52251 | 1451 ft | 134 kts | 37° |
| 2026-05-05 12:03 | 51.99750 | 4.52923 | 1670 ft | 133 kts | 20° |
| 2026-05-05 12:03 | 52.00662 | 4.53189 | 1907 ft | 133 kts | 5° |
| 2026-05-05 12:04 | 52.01572 | 4.52997 | 2138 ft | 132 kts | 349° |
| 2026-05-05 12:04 | 52.02413 | 4.52380 | 2368 ft | 133 kts | 332° |
| 2026-05-05 12:04 | 52.03108 | 4.51379 | 2620 ft | 135 kts | 315° |
| 2026-05-05 12:04 | 52.03605 | 4.50055 | 2899 ft | 141 kts | 298° |
| 2026-05-05 12:05 | 52.03854 | 4.48434 | 2978 ft | 158 kts | 279° |
| 2026-05-05 12:05 | 52.03711 | 4.46561 | 2989 ft | 178 kts | 255° |
| 2026-05-05 12:05 | 52.03101 | 4.44764 | 2968 ft | 187 kts | 230° |
| 2026-05-05 12:05 | 52.02131 | 4.43425 | 3157 ft | 182 kts | 216° |
| 2026-05-05 12:06 | 52.01147 | 4.42195 | 3401 ft | 175 kts | 217° |
| 2026-05-05 12:06 | 52.00195 | 4.40987 | 3649 ft | 173 kts | 218° |
| 2026-05-05 12:06 | 51.99256 | 4.39795 | 3905 ft | 170 kts | 218° |
| 2026-05-05 12:06 | 51.98334 | 4.38626 | 4164 ft | 167 kts | 218° |
| 2026-05-05 12:07 | 51.97426 | 4.37477 | 4419 ft | 165 kts | 218° |
| 2026-05-05 12:07 | 51.96611 | 4.36184 | 4673 ft | 164 kts | 239° |
| 2026-05-05 12:07 | 51.96234 | 4.34473 | 4930 ft | 160 kts | 264° |
| 2026-05-05 12:07 | 51.96091 | 4.32686 | 5182 ft | 159 kts | 264° |
| 2026-05-05 12:08 | 51.95942 | 4.30911 | 5431 ft | 159 kts | 263° |
| 2026-05-05 12:08 | 51.95792 | 4.29140 | 5689 ft | 158 kts | 263° |
| 2026-05-05 12:08 | 51.95643 | 4.27372 | 5948 ft | 158 kts | 262° |
| 2026-05-05 12:08 | 51.95494 | 4.25607 | 6207 ft | 158 kts | 262° |
| 2026-05-05 12:09 | 51.95346 | 4.23848 | 6454 ft | 158 kts | 261° |
| 2026-05-05 12:09 | 51.95197 | 4.22085 | 6697 ft | 158 kts | 261° |
| 2026-05-05 12:09 | 51.95047 | 4.20320 | 6942 ft | 158 kts | 262° |
| 2026-05-05 12:09 | 51.94897 | 4.18552 | 7188 ft | 158 kts | 262° |
| 2026-05-05 12:10 | 51.94748 | 4.16806 | 7436 ft | 159 kts | 262° |
| 2026-05-05 12:10 | 51.94597 | 4.15030 | 7686 ft | 159 kts | 262° |
| 2026-05-05 12:10 | 51.94445 | 4.13252 | 7938 ft | 160 kts | 262° |
| 2026-05-05 12:10 | 51.94292 | 4.11464 | 8193 ft | 160 kts | 262° |
| 2026-05-05 12:11 | 51.94234 | 4.09667 | 8449 ft | 161 kts | 279° |
| 2026-05-05 12:11 | 51.94671 | 4.08013 | 8706 ft | 161 kts | 307° |
| 2026-05-05 12:11 | 51.95451 | 4.06718 | 8968 ft | 161 kts | 316° |
| 2026-05-05 12:11 | 51.96252 | 4.05446 | 9231 ft | 161 kts | 316° |
| 2026-05-05 12:12 | 51.97053 | 4.04166 | 9494 ft | 162 kts | 316° |
| 2026-05-05 12:12 | 51.97856 | 4.02884 | 9765 ft | 162 kts | 316° |
| 2026-05-05 12:12 | 51.98659 | 4.01602 | 10008 ft | 162 kts | 315° |
| 2026-05-05 12:12 | 51.99462 | 4.00319 | 10248 ft | 162 kts | 316° |
| 2026-05-05 12:13 | 52.00265 | 3.99035 | 10492 ft | 162 kts | 316° |
| 2026-05-05 12:13 | 52.01071 | 3.97747 | 10737 ft | 162 kts | 316° |
| 2026-05-05 12:13 | 52.01866 | 3.96473 | 10980 ft | 163 kts | 315° |
| 2026-05-05 12:13 | 52.02673 | 3.95182 | 11228 ft | 163 kts | 315° |
| 2026-05-05 12:14 | 52.03482 | 3.93886 | 11483 ft | 164 kts | 315° |
| 2026-05-05 12:14 | 52.04294 | 3.92585 | 11734 ft | 164 kts | 315° |
| 2026-05-05 12:14 | 52.05108 | 3.91280 | 11995 ft | 165 kts | 315° |
| 2026-05-05 12:14 | 52.05923 | 3.89972 | 12250 ft | 165 kts | 315° |
| 2026-05-05 12:15 | 52.06742 | 3.88657 | 12510 ft | 166 kts | 315° |
| 2026-05-05 12:15 | 52.07561 | 3.87341 | 12769 ft | 166 kts | 315° |
| 2026-05-05 12:15 | 52.08383 | 3.86020 | 13030 ft | 166 kts | 315° |
| 2026-05-05 12:15 | 52.09208 | 3.84694 | 13293 ft | 167 kts | 315° |
| 2026-05-05 12:16 | 52.10034 | 3.83365 | 13559 ft | 167 kts | 314° |
| 2026-05-05 12:16 | 52.10861 | 3.82034 | 13813 ft | 168 kts | 314° |
| 2026-05-05 12:16 | 52.11691 | 3.80696 | 14046 ft | 168 kts | 314° |
| 2026-05-05 12:16 | 52.12521 | 3.79359 | 14290 ft | 168 kts | 314° |
| 2026-05-05 12:17 | 52.13350 | 3.78022 | 14534 ft | 168 kts | 314° |
| 2026-05-05 12:17 | 52.14179 | 3.76690 | 14775 ft | 167 kts | 315° |
| 2026-05-05 12:17 | 52.15180 | 3.75741 | 15016 ft | 168 kts | 341° |
| 2026-05-05 12:17 | 52.16339 | 3.75555 | 15261 ft | 169 kts | 5° |
| 2026-05-05 12:18 | 52.17470 | 3.76049 | 15518 ft | 168 kts | 16° |
| 2026-05-05 12:18 | 52.18589 | 3.76607 | 15759 ft | 168 kts | 16° |
| 2026-05-05 12:18 | 52.19703 | 3.77162 | 16013 ft | 167 kts | 16° |
| 2026-05-05 12:18 | 52.20809 | 3.77714 | 16270 ft | 165 kts | 16° |
| 2026-05-05 12:19 | 52.21906 | 3.78263 | 16520 ft | 164 kts | 17° |
| 2026-05-05 12:19 | 52.22994 | 3.78808 | 16784 ft | 163 kts | 15° |
| 2026-05-05 12:19 | 52.24076 | 3.79349 | 17044 ft | 162 kts | 15° |
| 2026-05-05 12:19 | 52.25145 | 3.79886 | 17306 ft | 160 kts | 15° |
| 2026-05-05 12:20 | 52.26203 | 3.80417 | 17565 ft | 158 kts | 16° |
| 2026-05-05 12:20 | 52.27244 | 3.80938 | 17832 ft | 155 kts | 16° |
| 2026-05-05 12:20 | 52.28271 | 3.81454 | 18101 ft | 153 kts | 15° |
| 2026-05-05 12:20 | 52.29280 | 3.81960 | 18348 ft | 150 kts | 15° |
| 2026-05-05 12:21 | 52.30257 | 3.82450 | 18581 ft | 147 kts | 16° |
| 2026-05-05 12:21 | 52.31221 | 3.82936 | 18810 ft | 144 kts | 15° |
| 2026-05-05 12:21 | 52.32162 | 3.83408 | 19053 ft | 139 kts | 14° |
| 2026-05-05 12:21 | 52.33073 | 3.83865 | 19280 ft | 134 kts | 15° |
| 2026-05-05 12:22 | 52.33944 | 3.84304 | 19517 ft | 128 kts | 13° |
| 2026-05-05 12:22 | 52.34781 | 3.84729 | 19690 ft | 127 kts | 14° |
| 2026-05-05 12:22 | 52.35646 | 3.85162 | 19795 ft | 133 kts | 14° |
| 2026-05-05 12:22 | 52.36553 | 3.85611 | 19899 ft | 139 kts | 9° |
| 2026-05-05 12:23 | 52.37494 | 3.85523 | 20017 ft | 138 kts | 342° |
| 2026-05-05 12:23 | 52.38491 | 3.85244 | 20026 ft | 151 kts | 347° |
| 2026-05-05 12:23 | 52.39571 | 3.84949 | 20028 ft | 163 kts | 345° |
| 2026-05-05 12:23 | 52.40721 | 3.84629 | 20026 ft | 172 kts | 347° |
| 2026-05-05 12:24 | 52.41930 | 3.84292 | 20022 ft | 180 kts | 347° |
| 2026-05-05 12:24 | 52.43179 | 3.83942 | 20022 ft | 185 kts | 346° |
| 2026-05-05 12:24 | 52.44467 | 3.83582 | 20023 ft | 190 kts | 346° |
| 2026-05-05 12:24 | 52.45779 | 3.83215 | 20026 ft | 193 kts | 346° |
| 2026-05-05 12:25 | 52.46660 | 3.82966 | 20027 ft | 195 kts | 345° |
| 2026-05-05 12:25 | 52.48436 | 3.82471 | 20027 ft | 196 kts | 345° |
| 2026-05-05 12:25 | 52.49786 | 3.82092 | 20028 ft | 197 kts | 346° |
| 2026-05-05 12:25 | 52.51142 | 3.81712 | 20028 ft | 198 kts | 345° |
| 2026-05-05 12:26 | 52.52504 | 3.81328 | 20032 ft | 198 kts | 345° |
| 2026-05-05 12:26 | 52.53867 | 3.80945 | 20033 ft | 199 kts | 346° |
| 2026-05-05 12:26 | 52.55230 | 3.80561 | 20032 ft | 199 kts | 346° |
| 2026-05-05 12:26 | 52.56598 | 3.80177 | 20031 ft | 199 kts | 346° |
| 2026-05-05 12:27 | 52.57524 | 3.79916 | 20031 ft | 199 kts | 346° |
| 2026-05-05 12:27 | 52.58875 | 3.79535 | 20028 ft | 200 kts | 346° |
| 2026-05-05 12:27 | 52.60246 | 3.79149 | 20036 ft | 200 kts | 345° |
| 2026-05-05 12:27 | 52.61618 | 3.78761 | 20037 ft | 200 kts | 346° |
| 2026-05-05 12:28 | 52.62988 | 3.78375 | 20038 ft | 200 kts | 345° |
| 2026-05-05 12:28 | 52.64358 | 3.77988 | 20037 ft | 200 kts | 345° |
| 2026-05-05 12:28 | 52.65728 | 3.77600 | 20037 ft | 200 kts | 346° |
| 2026-05-05 12:28 | 52.67099 | 3.77213 | 20038 ft | 200 kts | 345° |
| 2026-05-05 12:29 | 52.68472 | 3.76825 | 20040 ft | 200 kts | 346° |
| 2026-05-05 12:29 | 52.69841 | 3.76437 | 20040 ft | 200 kts | 345° |
| 2026-05-05 12:29 | 52.71211 | 3.76048 | 20035 ft | 200 kts | 345° |
| 2026-05-05 12:29 | 52.72581 | 3.75659 | 20038 ft | 199 kts | 345° |
| 2026-05-05 12:30 | 52.73947 | 3.75272 | 20040 ft | 199 kts | 345° |
| 2026-05-05 12:30 | 52.75313 | 3.74884 | 20036 ft | 199 kts | 345° |
| 2026-05-05 12:30 | 52.76633 | 3.74287 | 20038 ft | 195 kts | 331° |
| 2026-05-05 12:30 | 52.77871 | 3.73383 | 20031 ft | 195 kts | 331° |
| 2026-05-05 12:31 | 52.79116 | 3.72500 | 20039 ft | 194 kts | 332° |
| 2026-05-05 12:31 | 52.80357 | 3.71620 | 20035 ft | 194 kts | 332° |
| 2026-05-05 12:31 | 52.81600 | 3.70734 | 20041 ft | 194 kts | 332° |
| 2026-05-05 12:31 | 52.82840 | 3.69848 | 20040 ft | 194 kts | 332° |
| 2026-05-05 12:32 | 52.84080 | 3.68964 | 20043 ft | 194 kts | 332° |
| 2026-05-05 12:32 | 52.85304 | 3.68089 | 20043 ft | 194 kts | 332° |
| 2026-05-05 12:32 | 52.86561 | 3.67191 | 20044 ft | 194 kts | 332° |
| 2026-05-05 12:32 | 52.87785 | 3.66315 | 20038 ft | 194 kts | 331° |
| 2026-05-05 12:33 | 52.89026 | 3.65427 | 20041 ft | 194 kts | 331° |
| 2026-05-05 12:33 | 52.90265 | 3.64540 | 20039 ft | 194 kts | 332° |
| 2026-05-05 12:33 | 52.91507 | 3.63650 | 20060 ft | 194 kts | 332° |
| 2026-05-05 12:33 | 52.92746 | 3.62761 | 20058 ft | 194 kts | 332° |
| 2026-05-05 12:34 | 52.93987 | 3.61871 | 20059 ft | 194 kts | 331° |
| 2026-05-05 12:34 | 52.95227 | 3.60980 | 20055 ft | 194 kts | 332° |
| 2026-05-05 12:34 | 52.96468 | 3.60086 | 20064 ft | 194 kts | 330° |
| 2026-05-05 12:34 | 52.97704 | 3.59198 | 20063 ft | 193 kts | 330° |
| 2026-05-05 12:35 | 52.98938 | 3.58318 | 20059 ft | 193 kts | 330° |
| 2026-05-05 12:35 | 53.00166 | 3.57432 | 20062 ft | 192 kts | 330° |
| 2026-05-05 12:35 | 53.01285 | 3.56294 | 20064 ft | 186 kts | 313° |
| 2026-05-05 12:35 | 53.02107 | 3.54693 | 20060 ft | 181 kts | 297° |
| 2026-05-05 12:36 | 53.02706 | 3.52871 | 20063 ft | 179 kts | 294° |
| 2026-05-05 12:36 | 53.03304 | 3.51054 | 20065 ft | 179 kts | 294° |
| 2026-05-05 12:36 | 53.03903 | 3.49243 | 20063 ft | 179 kts | 294° |
| 2026-05-05 12:36 | 53.04501 | 3.47428 | 20065 ft | 179 kts | 294° |
| 2026-05-05 12:37 | 53.05096 | 3.45614 | 20064 ft | 179 kts | 294° |
| 2026-05-05 12:37 | 53.05688 | 3.43797 | 20051 ft | 179 kts | 294° |
| 2026-05-05 12:37 | 53.06276 | 3.41973 | 20051 ft | 179 kts | 294° |
| 2026-05-05 12:37 | 53.06865 | 3.40156 | 20051 ft | 179 kts | 294° |
| 2026-05-05 12:38 | 53.07456 | 3.38336 | 20051 ft | 179 kts | 294° |
| 2026-05-05 12:38 | 53.08045 | 3.36520 | 20050 ft | 179 kts | 294° |
| 2026-05-05 12:38 | 53.08635 | 3.34700 | 20048 ft | 179 kts | 294° |
| 2026-05-05 12:38 | 53.09224 | 3.32882 | 20047 ft | 178 kts | 294° |
| 2026-05-05 12:39 | 53.09805 | 3.31087 | 20052 ft | 178 kts | 294° |
| 2026-05-05 12:39 | 53.10401 | 3.29244 | 20051 ft | 178 kts | 294° |
| 2026-05-05 12:39 | 53.10988 | 3.27427 | 20053 ft | 178 kts | 294° |
| 2026-05-05 12:39 | 53.11569 | 3.25627 | 20041 ft | 178 kts | 294° |
| 2026-05-05 12:40 | 53.12156 | 3.23806 | 20039 ft | 178 kts | 294° |
| 2026-05-05 12:40 | 53.12743 | 3.21987 | 20038 ft | 179 kts | 294° |
| 2026-05-05 12:40 | 53.13331 | 3.20163 | 20038 ft | 179 kts | 294° |
| 2026-05-05 12:40 | 53.13917 | 3.18343 | 20041 ft | 179 kts | 294° |
| 2026-05-05 12:41 | 53.14503 | 3.16520 | 20044 ft | 178 kts | 294° |
| 2026-05-05 12:41 | 53.15090 | 3.14695 | 20042 ft | 178 kts | 294° |
| 2026-05-05 12:41 | 53.15675 | 3.12874 | 20044 ft | 178 kts | 294° |
| 2026-05-05 12:41 | 53.16261 | 3.11048 | 20042 ft | 178 kts | 294° |
| 2026-05-05 12:42 | 53.16845 | 3.09225 | 20041 ft | 178 kts | 293° |
| 2026-05-05 12:42 | 53.17430 | 3.07400 | 20044 ft | 179 kts | 293° |
| 2026-05-05 12:42 | 53.18016 | 3.05572 | 20057 ft | 178 kts | 294° |
| 2026-05-05 12:42 | 53.18599 | 3.03748 | 20052 ft | 178 kts | 294° |
| 2026-05-05 12:43 | 53.19182 | 3.01924 | 20050 ft | 178 kts | 294° |
| 2026-05-05 12:43 | 53.19765 | 3.00102 | 20052 ft | 178 kts | 294° |
| 2026-05-05 12:43 | 53.20347 | 2.98278 | 20051 ft | 178 kts | 294° |
| 2026-05-05 12:43 | 53.20929 | 2.96455 | 20051 ft | 178 kts | 294° |
| 2026-05-05 12:44 | 53.21510 | 2.94632 | 20054 ft | 178 kts | 294° |
| 2026-05-05 12:44 | 53.22091 | 2.92807 | 20053 ft | 178 kts | 293° |
| 2026-05-05 12:44 | 53.22670 | 2.90991 | 20053 ft | 177 kts | 293° |
| 2026-05-05 12:44 | 53.23247 | 2.89178 | 20053 ft | 176 kts | 293° |
| 2026-05-05 12:45 | 53.23823 | 2.87365 | 20053 ft | 176 kts | 293° |
| 2026-05-05 12:45 | 53.24395 | 2.85562 | 20055 ft | 176 kts | 293° |
| 2026-05-05 12:45 | 53.24966 | 2.83763 | 20055 ft | 175 kts | 293° |
| 2026-05-05 12:45 | 53.25537 | 2.81964 | 20055 ft | 175 kts | 293° |
| 2026-05-05 12:46 | 53.26107 | 2.80163 | 20053 ft | 175 kts | 293° |
| 2026-05-05 12:46 | 53.26676 | 2.78365 | 20053 ft | 175 kts | 293° |
| 2026-05-05 12:46 | 53.27245 | 2.76567 | 20053 ft | 175 kts | 293° |
| 2026-05-05 12:46 | 53.27815 | 2.74766 | 20053 ft | 175 kts | 293° |
| 2026-05-05 12:47 | 53.28376 | 2.72991 | 20052 ft | 175 kts | 293° |
| 2026-05-05 12:47 | 53.28944 | 2.71194 | 20052 ft | 175 kts | 293° |
| 2026-05-05 12:47 | 53.29512 | 2.69394 | 20052 ft | 175 kts | 293° |
| 2026-05-05 12:47 | 53.30079 | 2.67593 | 20052 ft | 175 kts | 293° |
| 2026-05-05 12:48 | 53.30647 | 2.65791 | 20052 ft | 175 kts | 293° |
| 2026-05-05 12:48 | 53.31214 | 2.63991 | 20052 ft | 175 kts | 293° |
| 2026-05-05 12:48 | 53.31780 | 2.62189 | 20052 ft | 175 kts | 293° |
| 2026-05-05 12:48 | 53.32348 | 2.60382 | 20052 ft | 175 kts | 293° |
| 2026-05-05 12:49 | 53.32914 | 2.58580 | 20055 ft | 175 kts | 293° |
| 2026-05-05 12:49 | 53.33480 | 2.56777 | 20055 ft | 175 kts | 293° |
| 2026-05-05 12:49 | 53.34046 | 2.54974 | 20059 ft | 175 kts | 293° |
| 2026-05-05 12:49 | 53.34611 | 2.53169 | 20059 ft | 175 kts | 293° |
| 2026-05-05 12:50 | 53.35176 | 2.51367 | 20056 ft | 175 kts | 293° |
| 2026-05-05 12:50 | 53.35741 | 2.49561 | 20056 ft | 175 kts | 293° |
| 2026-05-05 12:50 | 53.36306 | 2.47755 | 20056 ft | 175 kts | 293° |
| 2026-05-05 12:50 | 53.36870 | 2.45950 | 20059 ft | 175 kts | 293° |
| 2026-05-05 12:51 | 53.37434 | 2.44144 | 20059 ft | 175 kts | 293° |
| 2026-05-05 12:51 | 53.37998 | 2.42336 | 20059 ft | 175 kts | 293° |
| 2026-05-05 12:51 | 53.38560 | 2.40531 | 20059 ft | 175 kts | 293° |
| 2026-05-05 12:51 | 53.39123 | 2.38724 | 20059 ft | 175 kts | 293° |
| 2026-05-05 12:52 | 53.39686 | 2.36917 | 20059 ft | 175 kts | 293° |
| 2026-05-05 12:52 | 53.40248 | 2.35109 | 20059 ft | 175 kts | 293° |
| 2026-05-05 12:52 | 53.40810 | 2.33300 | 20059 ft | 175 kts | 292° |
| 2026-05-05 12:52 | 53.41372 | 2.31492 | 20059 ft | 175 kts | 292° |
| 2026-05-05 12:53 | 53.41933 | 2.29683 | 20059 ft | 175 kts | 292° |
| 2026-05-05 12:53 | 53.42495 | 2.27873 | 20059 ft | 175 kts | 292° |
| 2026-05-05 12:53 | 53.43056 | 2.26063 | 20059 ft | 175 kts | 292° |
| 2026-05-05 12:53 | 53.43616 | 2.24254 | 20059 ft | 175 kts | 292° |
| 2026-05-05 12:54 | 53.44737 | 2.20630 | 20059 ft | 175 kts | 292° |
| 2026-05-05 12:54 | 53.45289 | 2.18842 | 20059 ft | 175 kts | 292° |
| 2026-05-05 12:54 | 53.45848 | 2.17031 | 20059 ft | 175 kts | 292° |
| 2026-05-05 12:55 | 53.46407 | 2.15219 | 20059 ft | 175 kts | 292° |
| 2026-05-05 12:55 | 53.46966 | 2.13405 | 20059 ft | 175 kts | 292° |
| 2026-05-05 12:55 | 53.47525 | 2.11592 | 20059 ft | 175 kts | 292° |
| 2026-05-05 12:55 | 53.48084 | 2.09778 | 20059 ft | 175 kts | 292° |
| 2026-05-05 12:56 | 53.48642 | 2.07963 | 20059 ft | 175 kts | 292° |
| 2026-05-05 12:56 | 53.49200 | 2.06145 | 20069 ft | 175 kts | 292° |
| 2026-05-05 12:56 | 53.49759 | 2.04328 | 20064 ft | 175 kts | 292° |
| 2026-05-05 12:56 | 53.50317 | 2.02509 | 20063 ft | 175 kts | 292° |
| 2026-05-05 12:57 | 53.50875 | 2.00688 | 20063 ft | 175 kts | 292° |
| 2026-05-05 12:57 | 53.51431 | 1.98873 | 20064 ft | 175 kts | 292° |
| 2026-05-05 12:57 | 53.51987 | 1.97057 | 20063 ft | 175 kts | 292° |
| 2026-05-05 12:57 | 53.52542 | 1.95243 | 20063 ft | 175 kts | 292° |
| 2026-05-05 12:58 | 53.53098 | 1.93426 | 20063 ft | 175 kts | 292° |
| 2026-05-05 12:58 | 53.53652 | 1.91612 | 20061 ft | 175 kts | 292° |
| 2026-05-05 12:58 | 53.54207 | 1.89795 | 20061 ft | 174 kts | 292° |
| 2026-05-05 12:58 | 53.54761 | 1.87977 | 20061 ft | 174 kts | 292° |
| 2026-05-05 12:59 | 53.55307 | 1.86187 | 20061 ft | 175 kts | 292° |
| 2026-05-05 12:59 | 53.55861 | 1.84367 | 20060 ft | 175 kts | 292° |
| 2026-05-05 12:59 | 53.56414 | 1.82550 | 20061 ft | 175 kts | 292° |
| 2026-05-05 13:00 | 53.57519 | 1.78914 | 20060 ft | 175 kts | 292° |
| 2026-05-05 13:00 | 53.58071 | 1.77095 | 20061 ft | 175 kts | 292° |
| 2026-05-05 13:01 | 53.59726 | 1.71638 | 20060 ft | 174 kts | 292° |
| 2026-05-05 13:01 | 53.60362 | 1.69883 | 20061 ft | 177 kts | 301° |
| 2026-05-05 13:01 | 53.61113 | 1.68233 | 20060 ft | 178 kts | 302° |
| 2026-05-05 13:01 | 53.61861 | 1.66580 | 20061 ft | 177 kts | 301° |
| 2026-05-05 13:02 | 53.62604 | 1.64920 | 20061 ft | 177 kts | 301° |
| 2026-05-05 13:02 | 53.63344 | 1.63258 | 20061 ft | 177 kts | 301° |
| 2026-05-05 13:02 | 53.64086 | 1.61596 | 20060 ft | 177 kts | 301° |
| 2026-05-05 13:02 | 53.64827 | 1.59931 | 20059 ft | 177 kts | 301° |
| 2026-05-05 13:03 | 53.65568 | 1.58268 | 20061 ft | 177 kts | 301° |
| 2026-05-05 13:03 | 53.66308 | 1.56606 | 20060 ft | 177 kts | 301° |
| 2026-05-05 13:03 | 53.67040 | 1.54960 | 20066 ft | 177 kts | 301° |
| 2026-05-05 13:03 | 53.67781 | 1.53294 | 20063 ft | 177 kts | 301° |
| 2026-05-05 13:04 | 53.68524 | 1.51620 | 20066 ft | 177 kts | 301° |
| 2026-05-05 13:04 | 53.69264 | 1.49953 | 20065 ft | 177 kts | 301° |
| 2026-05-05 13:04 | 53.70004 | 1.48284 | 20065 ft | 177 kts | 301° |
| 2026-05-05 13:04 | 53.70743 | 1.46616 | 20065 ft | 177 kts | 301° |
| 2026-05-05 13:05 | 53.71483 | 1.44947 | 20063 ft | 177 kts | 301° |
| 2026-05-05 13:05 | 53.72221 | 1.43278 | 20063 ft | 177 kts | 301° |
| 2026-05-05 13:05 | 53.72959 | 1.41610 | 20069 ft | 177 kts | 301° |
| 2026-05-05 13:05 | 53.73700 | 1.39934 | 20068 ft | 178 kts | 300° |
| 2026-05-05 13:06 | 53.74440 | 1.38259 | 20064 ft | 177 kts | 300° |
| 2026-05-05 13:06 | 53.75176 | 1.36593 | 20064 ft | 177 kts | 300° |
| 2026-05-05 13:06 | 53.75911 | 1.34929 | 20064 ft | 176 kts | 300° |
| 2026-05-05 13:06 | 53.76634 | 1.33288 | 20064 ft | 176 kts | 300° |
| 2026-05-05 13:07 | 53.77366 | 1.31627 | 20059 ft | 176 kts | 300° |
| 2026-05-05 13:07 | 53.78097 | 1.29968 | 20059 ft | 176 kts | 300° |
| 2026-05-05 13:07 | 53.78826 | 1.28309 | 20059 ft | 176 kts | 300° |
| 2026-05-05 13:07 | 53.79557 | 1.26647 | 20059 ft | 176 kts | 300° |
| 2026-05-05 13:08 | 53.80286 | 1.24989 | 20061 ft | 176 kts | 300° |
| 2026-05-05 13:08 | 53.81014 | 1.23330 | 20061 ft | 175 kts | 300° |
| 2026-05-05 13:08 | 53.81742 | 1.21673 | 20061 ft | 175 kts | 300° |
| 2026-05-05 13:08 | 53.82469 | 1.20015 | 20061 ft | 175 kts | 300° |
| 2026-05-05 13:09 | 53.83196 | 1.18356 | 20061 ft | 175 kts | 300° |
| 2026-05-05 13:09 | 53.83922 | 1.16698 | 20061 ft | 175 kts | 300° |
| 2026-05-05 13:09 | 53.84649 | 1.15039 | 20061 ft | 175 kts | 300° |
| 2026-05-05 13:09 | 53.85374 | 1.13381 | 20061 ft | 175 kts | 300° |
| 2026-05-05 13:10 | 53.86101 | 1.11719 | 20061 ft | 175 kts | 300° |
| 2026-05-05 13:10 | 53.86826 | 1.10057 | 20061 ft | 175 kts | 300° |
| 2026-05-05 13:10 | 53.87551 | 1.08397 | 20061 ft | 175 kts | 300° |
| 2026-05-05 13:10 | 53.88276 | 1.06736 | 20061 ft | 175 kts | 300° |
| 2026-05-05 13:11 | 53.88992 | 1.05093 | 20061 ft | 175 kts | 300° |
| 2026-05-05 13:11 | 53.89717 | 1.03430 | 20062 ft | 176 kts | 300° |
| 2026-05-05 13:11 | 53.90446 | 1.01755 | 20063 ft | 176 kts | 300° |
| 2026-05-05 13:11 | 53.91175 | 1.00080 | 20063 ft | 177 kts | 300° |
| 2026-05-05 13:12 | 53.91904 | 0.98404 | 20063 ft | 177 kts | 300° |
| 2026-05-05 13:12 | 53.92634 | 0.96724 | 20063 ft | 177 kts | 300° |
| 2026-05-05 13:12 | 53.93364 | 0.95043 | 20063 ft | 177 kts | 300° |
| 2026-05-05 13:12 | 53.94096 | 0.93356 | 20063 ft | 177 kts | 300° |
| 2026-05-05 13:13 | 53.94580 | 0.92241 | 20063 ft | 177 kts | 300° |
| 2026-05-05 13:13 | 53.95310 | 0.90557 | 20063 ft | 177 kts | 300° |
| 2026-05-05 13:13 | 53.96038 | 0.88875 | 20064 ft | 177 kts | 300° |
| 2026-05-05 13:13 | 53.96768 | 0.87190 | 20064 ft | 177 kts | 300° |
| 2026-05-05 13:14 | 53.97497 | 0.85503 | 20066 ft | 177 kts | 300° |
| 2026-05-05 13:14 | 53.98226 | 0.83817 | 20066 ft | 177 kts | 300° |
| 2026-05-05 13:14 | 53.98955 | 0.82131 | 20066 ft | 177 kts | 300° |
| 2026-05-05 13:14 | 53.99684 | 0.80442 | 20064 ft | 178 kts | 300° |
| 2026-05-05 13:15 | 54.00414 | 0.78749 | 20067 ft | 178 kts | 300° |
| 2026-05-05 13:15 | 54.01145 | 0.77055 | 20067 ft | 178 kts | 300° |
| 2026-05-05 13:15 | 54.01875 | 0.75361 | 20067 ft | 178 kts | 300° |
| 2026-05-05 13:15 | 54.02605 | 0.73666 | 20067 ft | 178 kts | 300° |
| 2026-05-05 13:16 | 54.03334 | 0.71971 | 20067 ft | 177 kts | 300° |
| 2026-05-05 13:16 | 54.04063 | 0.70274 | 20067 ft | 177 kts | 300° |
| 2026-05-05 13:16 | 54.04792 | 0.68579 | 20069 ft | 177 kts | 300° |
| 2026-05-05 13:16 | 54.05521 | 0.66881 | 20069 ft | 178 kts | 300° |
| 2026-05-05 13:17 | 54.06249 | 0.65183 | 20069 ft | 178 kts | 300° |
| 2026-05-05 13:17 | 54.06968 | 0.63508 | 20069 ft | 178 kts | 300° |
| 2026-05-05 13:17 | 54.07705 | 0.61788 | 20072 ft | 178 kts | 300° |
| 2026-05-05 13:17 | 54.08433 | 0.60089 | 20072 ft | 178 kts | 300° |
| 2026-05-05 13:18 | 54.09151 | 0.58411 | 20071 ft | 178 kts | 300° |
| 2026-05-05 13:18 | 54.09878 | 0.56710 | 20071 ft | 178 kts | 300° |
| 2026-05-05 13:18 | 54.10605 | 0.55009 | 20071 ft | 178 kts | 300° |
| 2026-05-05 13:18 | 54.11331 | 0.53309 | 20071 ft | 178 kts | 300° |
| 2026-05-05 13:19 | 54.12058 | 0.51605 | 20070 ft | 178 kts | 300° |
| 2026-05-05 13:19 | 54.12789 | 0.49892 | 20070 ft | 178 kts | 300° |
| 2026-05-05 13:19 | 54.13517 | 0.48184 | 20070 ft | 178 kts | 300° |
| 2026-05-05 13:19 | 54.14245 | 0.46474 | 20070 ft | 178 kts | 300° |
| 2026-05-05 13:20 | 54.14974 | 0.44762 | 20070 ft | 178 kts | 300° |
| 2026-05-05 13:20 | 54.15701 | 0.43052 | 20070 ft | 178 kts | 300° |
| 2026-05-05 13:20 | 54.16429 | 0.41340 | 20070 ft | 178 kts | 300° |
| 2026-05-05 13:20 | 54.17157 | 0.39625 | 20070 ft | 178 kts | 300° |
| 2026-05-05 13:21 | 54.17884 | 0.37913 | 20070 ft | 178 kts | 300° |
| 2026-05-05 13:21 | 54.18611 | 0.36199 | 20070 ft | 178 kts | 300° |
| 2026-05-05 13:21 | 54.19337 | 0.34487 | 20070 ft | 178 kts | 300° |
| 2026-05-05 13:21 | 54.20063 | 0.32773 | 20070 ft | 178 kts | 300° |
| 2026-05-05 13:22 | 54.20788 | 0.31059 | 20071 ft | 178 kts | 300° |
| 2026-05-05 13:22 | 54.21514 | 0.29343 | 20071 ft | 178 kts | 300° |
| 2026-05-05 13:22 | 54.22238 | 0.27630 | 20071 ft | 178 kts | 300° |
| 2026-05-05 13:22 | 54.22963 | 0.25914 | 20071 ft | 178 kts | 300° |
| 2026-05-05 13:23 | 54.23678 | 0.24221 | 20070 ft | 178 kts | 300° |
| 2026-05-05 13:23 | 54.24404 | 0.22500 | 20070 ft | 178 kts | 300° |
| 2026-05-05 13:23 | 54.25129 | 0.20779 | 20079 ft | 179 kts | 300° |
| 2026-05-05 13:23 | 54.25854 | 0.19059 | 20079 ft | 178 kts | 300° |
| 2026-05-05 13:24 | 54.26577 | 0.17341 | 20076 ft | 178 kts | 300° |
| 2026-05-05 13:24 | 54.27299 | 0.15623 | 20077 ft | 178 kts | 300° |
| 2026-05-05 13:24 | 54.28021 | 0.13907 | 20077 ft | 178 kts | 300° |
| 2026-05-05 13:24 | 54.28741 | 0.12192 | 20077 ft | 177 kts | 300° |
| 2026-05-05 13:25 | 54.29461 | 0.10477 | 20077 ft | 177 kts | 300° |
| 2026-05-05 13:25 | 54.30181 | 0.08761 | 20077 ft | 177 kts | 300° |
| 2026-05-05 13:25 | 54.30900 | 0.07046 | 20077 ft | 177 kts | 300° |
| 2026-05-05 13:25 | 54.31618 | 0.05332 | 20077 ft | 177 kts | 300° |
| 2026-05-05 13:26 | 54.32337 | 0.03616 | 20076 ft | 177 kts | 300° |
| 2026-05-05 13:26 | 54.33054 | 0.01900 | 20075 ft | 177 kts | 300° |
| 2026-05-05 13:26 | 54.33772 | 0.00183 | 20074 ft | 177 kts | 300° |
| 2026-05-05 13:26 | 54.34490 | -0.01535 | 20080 ft | 177 kts | 300° |
| 2026-05-05 13:27 | 54.35206 | -0.03250 | 20081 ft | 177 kts | 300° |
| 2026-05-05 13:27 | 54.35921 | -0.04962 | 20080 ft | 177 kts | 300° |
| 2026-05-05 13:27 | 54.36635 | -0.06676 | 20080 ft | 177 kts | 300° |
| 2026-05-05 13:27 | 54.37350 | -0.08391 | 20081 ft | 177 kts | 300° |
| 2026-05-05 13:28 | 54.38064 | -0.10105 | 20080 ft | 177 kts | 300° |
| 2026-05-05 13:28 | 54.38777 | -0.11820 | 20080 ft | 177 kts | 300° |
| 2026-05-05 13:28 | 54.39483 | -0.13519 | 20079 ft | 177 kts | 300° |
| 2026-05-05 13:28 | 54.40196 | -0.15233 | 20078 ft | 177 kts | 300° |
| 2026-05-05 13:29 | 54.40908 | -0.16950 | 20083 ft | 177 kts | 300° |
| 2026-05-05 13:29 | 54.41622 | -0.18670 | 20083 ft | 177 kts | 300° |
| 2026-05-05 13:29 | 54.42335 | -0.20389 | 20083 ft | 177 kts | 300° |
| 2026-05-05 13:29 | 54.43048 | -0.22109 | 20083 ft | 177 kts | 300° |
| 2026-05-05 13:30 | 54.43760 | -0.23829 | 20083 ft | 177 kts | 300° |
| 2026-05-05 13:30 | 54.44471 | -0.25548 | 20082 ft | 177 kts | 300° |
| 2026-05-05 13:30 | 54.45183 | -0.27270 | 20083 ft | 177 kts | 300° |
| 2026-05-05 13:30 | 54.45895 | -0.28992 | 20082 ft | 177 kts | 300° |
| 2026-05-05 13:31 | 54.46607 | -0.30716 | 20081 ft | 177 kts | 300° |
| 2026-05-05 13:31 | 54.47318 | -0.32439 | 20081 ft | 177 kts | 300° |
| 2026-05-05 13:31 | 54.48028 | -0.34162 | 20079 ft | 177 kts | 300° |
| 2026-05-05 13:31 | 54.48738 | -0.35885 | 20081 ft | 177 kts | 300° |
| 2026-05-05 13:32 | 54.49448 | -0.37608 | 20080 ft | 177 kts | 300° |
| 2026-05-05 13:32 | 54.50157 | -0.39333 | 20080 ft | 177 kts | 300° |
| 2026-05-05 13:32 | 54.50862 | -0.41045 | 20081 ft | 177 kts | 300° |
| 2026-05-05 13:32 | 54.51572 | -0.42774 | 20081 ft | 177 kts | 300° |
| 2026-05-05 13:33 | 54.52281 | -0.44500 | 20084 ft | 177 kts | 300° |
| 2026-05-05 13:33 | 54.52990 | -0.46227 | 20084 ft | 176 kts | 300° |
| 2026-05-05 13:33 | 54.53698 | -0.47955 | 20084 ft | 176 kts | 300° |
| 2026-05-05 13:33 | 54.54406 | -0.49683 | 20084 ft | 176 kts | 300° |
| 2026-05-05 13:34 | 54.55113 | -0.51409 | 20089 ft | 176 kts | 300° |
| 2026-05-05 13:34 | 54.55820 | -0.53136 | 20089 ft | 176 kts | 300° |
| 2026-05-05 13:34 | 54.56525 | -0.54861 | 20089 ft | 176 kts | 300° |
| 2026-05-05 13:34 | 54.57230 | -0.56586 | 20089 ft | 176 kts | 300° |
| 2026-05-05 13:35 | 54.57934 | -0.58310 | 20089 ft | 176 kts | 300° |
| 2026-05-05 13:35 | 54.58640 | -0.60039 | 20089 ft | 176 kts | 300° |
| 2026-05-05 13:35 | 54.59344 | -0.61766 | 20089 ft | 176 kts | 300° |
| 2026-05-05 13:35 | 54.60048 | -0.63492 | 20089 ft | 176 kts | 300° |
| 2026-05-05 13:36 | 54.60734 | -0.65167 | 20085 ft | 160 kts | 300° |
| 2026-05-05 13:36 | 54.61357 | -0.66703 | 20084 ft | 157 kts | 299° |
| 2026-05-05 13:36 | 54.61991 | -0.68270 | 20087 ft | 162 kts | 299° |
| 2026-05-05 13:36 | 54.62645 | -0.69881 | 20089 ft | 165 kts | 299° |
| 2026-05-05 13:37 | 54.63311 | -0.71520 | 20090 ft | 168 kts | 299° |
| 2026-05-05 13:37 | 54.63987 | -0.73183 | 20091 ft | 170 kts | 300° |
| 2026-05-05 13:37 | 54.64669 | -0.74864 | 20092 ft | 172 kts | 300° |
| 2026-05-05 13:37 | 54.65347 | -0.76537 | 20093 ft | 173 kts | 300° |
| 2026-05-05 13:38 | 54.66037 | -0.78240 | 20093 ft | 174 kts | 300° |
| 2026-05-05 13:38 | 54.66731 | -0.79952 | 20094 ft | 174 kts | 300° |
| 2026-05-05 13:38 | 54.67426 | -0.81670 | 20094 ft | 175 kts | 300° |
| 2026-05-05 13:38 | 54.68122 | -0.83393 | 20091 ft | 175 kts | 299° |
| 2026-05-05 13:39 | 54.68820 | -0.85119 | 20094 ft | 175 kts | 300° |
| 2026-05-05 13:39 | 54.69517 | -0.86845 | 20099 ft | 175 kts | 300° |
| 2026-05-05 13:39 | 54.70215 | -0.88576 | 20100 ft | 175 kts | 300° |
| 2026-05-05 13:39 | 54.70912 | -0.90305 | 20100 ft | 175 kts | 300° |
| 2026-05-05 13:40 | 54.71609 | -0.92036 | 20098 ft | 175 kts | 299° |
| 2026-05-05 13:40 | 54.72308 | -0.93771 | 20098 ft | 176 kts | 299° |
| 2026-05-05 13:40 | 54.73004 | -0.95503 | 20098 ft | 176 kts | 299° |
| 2026-05-05 13:40 | 54.73702 | -0.97238 | 20098 ft | 176 kts | 299° |
| 2026-05-05 13:41 | 54.74400 | -0.98976 | 20102 ft | 176 kts | 299° |
| 2026-05-05 13:41 | 54.75097 | -1.00712 | 20105 ft | 176 kts | 299° |
| 2026-05-05 13:41 | 54.75795 | -1.02452 | 20103 ft | 176 kts | 299° |
| 2026-05-05 13:41 | 54.76491 | -1.04187 | 20104 ft | 175 kts | 299° |
| 2026-05-05 13:42 | 54.77185 | -1.05918 | 20105 ft | 175 kts | 299° |
| 2026-05-05 13:42 | 54.77876 | -1.07644 | 20108 ft | 174 kts | 299° |
| 2026-05-05 13:42 | 54.78566 | -1.09371 | 20109 ft | 174 kts | 300° |
| 2026-05-05 13:42 | 54.79255 | -1.11094 | 20108 ft | 174 kts | 300° |
| 2026-05-05 13:43 | 54.79945 | -1.12821 | 20109 ft | 174 kts | 299° |
| 2026-05-05 13:43 | 54.80634 | -1.14548 | 20105 ft | 174 kts | 299° |
| 2026-05-05 13:43 | 54.81322 | -1.16273 | 20107 ft | 174 kts | 299° |
| 2026-05-05 13:43 | 54.82010 | -1.17998 | 20105 ft | 174 kts | 299° |
| 2026-05-05 13:44 | 54.82698 | -1.19724 | 20108 ft | 174 kts | 299° |
| 2026-05-05 13:44 | 54.83385 | -1.21450 | 20109 ft | 174 kts | 299° |
| 2026-05-05 13:44 | 54.84072 | -1.23176 | 20105 ft | 174 kts | 299° |
| 2026-05-05 13:44 | 54.84759 | -1.24903 | 20112 ft | 174 kts | 299° |
| 2026-05-05 13:45 | 54.85445 | -1.26630 | 20113 ft | 174 kts | 299° |
| 2026-05-05 13:45 | 54.86130 | -1.28356 | 20113 ft | 174 kts | 299° |
| 2026-05-05 13:45 | 54.86817 | -1.30087 | 20117 ft | 174 kts | 299° |
| 2026-05-05 13:45 | 54.87501 | -1.31815 | 20122 ft | 174 kts | 299° |
| 2026-05-05 13:46 | 54.88187 | -1.33545 | 20118 ft | 174 kts | 299° |
| 2026-05-05 13:46 | 54.88872 | -1.35277 | 20121 ft | 174 kts | 299° |
| 2026-05-05 13:46 | 54.89558 | -1.37009 | 20121 ft | 174 kts | 299° |
| 2026-05-05 13:46 | 54.90243 | -1.38743 | 20122 ft | 174 kts | 299° |
| 2026-05-05 13:47 | 54.90927 | -1.40473 | 20125 ft | 174 kts | 299° |
| 2026-05-05 13:47 | 54.91611 | -1.42206 | 20126 ft | 174 kts | 299° |
| 2026-05-05 13:47 | 54.92295 | -1.43939 | 20128 ft | 174 kts | 299° |
| 2026-05-05 13:47 | 54.92979 | -1.45675 | 20130 ft | 174 kts | 299° |
| 2026-05-05 13:48 | 54.93665 | -1.47415 | 20131 ft | 174 kts | 299° |
| 2026-05-05 13:48 | 54.94350 | -1.49155 | 20133 ft | 174 kts | 299° |
| 2026-05-05 13:48 | 54.95034 | -1.50895 | 20134 ft | 174 kts | 299° |
| 2026-05-05 13:48 | 54.95719 | -1.52637 | 20134 ft | 174 kts | 299° |
| 2026-05-05 13:49 | 54.96403 | -1.54379 | 20132 ft | 174 kts | 299° |
| 2026-05-05 13:49 | 54.97079 | -1.56100 | 20136 ft | 174 kts | 299° |
| 2026-05-05 13:49 | 54.97762 | -1.57841 | 20134 ft | 174 kts | 299° |
| 2026-05-05 13:49 | 54.98445 | -1.59584 | 20137 ft | 174 kts | 299° |
| 2026-05-05 13:50 | 54.99127 | -1.61323 | 20140 ft | 174 kts | 299° |
| 2026-05-05 13:50 | 54.99807 | -1.63062 | 20152 ft | 174 kts | 299° |
| 2026-05-05 13:50 | 55.00490 | -1.64806 | 20135 ft | 174 kts | 299° |
| 2026-05-05 13:50 | 55.01172 | -1.66552 | 20133 ft | 174 kts | 299° |
| 2026-05-05 13:51 | 55.01852 | -1.68292 | 20138 ft | 174 kts | 299° |
| 2026-05-05 13:51 | 55.02532 | -1.70033 | 20138 ft | 174 kts | 299° |
| 2026-05-05 13:51 | 55.03212 | -1.71777 | 20138 ft | 173 kts | 299° |
| 2026-05-05 13:51 | 55.03891 | -1.73518 | 20136 ft | 174 kts | 299° |
| 2026-05-05 13:52 | 55.04570 | -1.75262 | 20139 ft | 174 kts | 299° |
| 2026-05-05 13:52 | 55.05249 | -1.77006 | 20139 ft | 174 kts | 299° |
| 2026-05-05 13:52 | 55.05921 | -1.78733 | 20139 ft | 174 kts | 299° |
| 2026-05-05 13:52 | 55.06600 | -1.80483 | 20141 ft | 174 kts | 299° |
| 2026-05-05 13:53 | 55.07282 | -1.82235 | 20138 ft | 175 kts | 299° |
| 2026-05-05 13:53 | 55.07963 | -1.83992 | 20132 ft | 175 kts | 299° |
| 2026-05-05 13:53 | 55.08644 | -1.85746 | 20131 ft | 174 kts | 299° |
| 2026-05-05 13:53 | 55.09323 | -1.87498 | 20134 ft | 174 kts | 299° |
| 2026-05-05 13:54 | 55.10001 | -1.89247 | 20114 ft | 174 kts | 299° |
| 2026-05-05 13:54 | 55.10677 | -1.90993 | 20112 ft | 174 kts | 299° |
| 2026-05-05 13:54 | 55.11354 | -1.92746 | 20115 ft | 174 kts | 299° |
| 2026-05-05 13:54 | 55.12030 | -1.94493 | 20114 ft | 174 kts | 299° |
| 2026-05-05 13:55 | 55.12653 | -1.96294 | 20112 ft | 173 kts | 295° |
| 2026-05-05 13:55 | 55.13252 | -1.98119 | 20114 ft | 173 kts | 295° |
| 2026-05-05 13:55 | 55.13854 | -1.99940 | 20110 ft | 173 kts | 295° |
| 2026-05-05 13:55 | 55.14455 | -2.01758 | 20113 ft | 173 kts | 295° |
| 2026-05-05 13:56 | 55.15057 | -2.03582 | 20082 ft | 175 kts | 295° |
| 2026-05-05 13:56 | 55.15669 | -2.05441 | 19991 ft | 179 kts | 295° |
| 2026-05-05 13:56 | 55.16296 | -2.07347 | 19870 ft | 183 kts | 296° |
| 2026-05-05 13:56 | 55.16938 | -2.09295 | 19747 ft | 186 kts | 296° |
| 2026-05-05 13:57 | 55.17589 | -2.11274 | 19625 ft | 189 kts | 296° |
| 2026-05-05 13:57 | 55.18248 | -2.13279 | 19504 ft | 191 kts | 296° |
| 2026-05-05 13:57 | 55.18914 | -2.15304 | 19382 ft | 193 kts | 296° |
| 2026-05-05 13:57 | 55.19584 | -2.17344 | 19260 ft | 194 kts | 296° |
| 2026-05-05 13:58 | 55.20255 | -2.19394 | 19137 ft | 194 kts | 296° |
| 2026-05-05 13:58 | 55.20930 | -2.21449 | 19012 ft | 195 kts | 296° |
| 2026-05-05 13:58 | 55.21375 | -2.22812 | 18933 ft | 195 kts | 297° |
| 2026-05-05 13:58 | 55.22053 | -2.24887 | 18810 ft | 196 kts | 297° |
| 2026-05-05 13:59 | 55.23412 | -2.29047 | 18572 ft | 197 kts | 297° |
| 2026-05-05 13:59 | 55.24094 | -2.31135 | 18456 ft | 198 kts | 297° |
| 2026-05-05 14:00 | 55.25458 | -2.35321 | 18215 ft | 198 kts | 296° |
| 2026-05-05 14:00 | 55.26140 | -2.37416 | 18087 ft | 198 kts | 296° |
| 2026-05-05 14:00 | 55.26824 | -2.39521 | 17947 ft | 199 kts | 297° |
| 2026-05-05 14:00 | 55.27512 | -2.41642 | 17756 ft | 201 kts | 297° |
| 2026-05-05 14:01 | 55.28199 | -2.43749 | 17481 ft | 192 kts | 297° |
| 2026-05-05 14:01 | 55.28835 | -2.45713 | 17213 ft | 181 kts | 297° |
| 2026-05-05 14:01 | 55.29455 | -2.47635 | 16953 ft | 181 kts | 297° |
| 2026-05-05 14:01 | 55.30069 | -2.49534 | 16695 ft | 181 kts | 296° |
| 2026-05-05 14:02 | 55.30691 | -2.51455 | 16433 ft | 180 kts | 297° |
| 2026-05-05 14:02 | 55.31310 | -2.53371 | 16177 ft | 181 kts | 297° |
| 2026-05-05 14:02 | 55.31930 | -2.55291 | 15921 ft | 181 kts | 297° |
| 2026-05-05 14:02 | 55.32552 | -2.57217 | 15668 ft | 182 kts | 297° |
| 2026-05-05 14:03 | 55.33179 | -2.59161 | 15417 ft | 183 kts | 297° |
| 2026-05-05 14:03 | 55.33802 | -2.61091 | 15165 ft | 178 kts | 297° |
| 2026-05-05 14:03 | 55.34398 | -2.62945 | 14922 ft | 171 kts | 297° |
| 2026-05-05 14:03 | 55.34976 | -2.64744 | 14677 ft | 167 kts | 297° |
| 2026-05-05 14:04 | 55.35543 | -2.66509 | 14428 ft | 164 kts | 297° |
| 2026-05-05 14:04 | 55.36103 | -2.68252 | 14186 ft | 163 kts | 297° |
| 2026-05-05 14:04 | 55.36655 | -2.69972 | 13942 ft | 161 kts | 297° |
| 2026-05-05 14:04 | 55.37201 | -2.71673 | 13690 ft | 159 kts | 297° |
| 2026-05-05 14:05 | 55.37744 | -2.73369 | 13416 ft | 159 kts | 297° |
| 2026-05-05 14:05 | 55.38290 | -2.75075 | 13147 ft | 160 kts | 297° |
| 2026-05-05 14:05 | 55.38838 | -2.76785 | 12887 ft | 160 kts | 297° |
| 2026-05-05 14:05 | 55.39384 | -2.78496 | 12616 ft | 161 kts | 298° |
| 2026-05-05 14:06 | 55.39934 | -2.80213 | 12355 ft | 161 kts | 298° |
| 2026-05-05 14:06 | 55.40481 | -2.81927 | 12092 ft | 161 kts | 298° |
| 2026-05-05 14:06 | 55.41028 | -2.83640 | 11843 ft | 160 kts | 298° |
| 2026-05-05 14:06 | 55.41573 | -2.85347 | 11590 ft | 160 kts | 298° |
| 2026-05-05 14:07 | 55.42115 | -2.87047 | 11334 ft | 159 kts | 298° |
| 2026-05-05 14:07 | 55.42657 | -2.88751 | 11082 ft | 160 kts | 298° |
| 2026-05-05 14:07 | 55.43201 | -2.90459 | 10832 ft | 160 kts | 298° |
| 2026-05-05 14:07 | 55.43745 | -2.92170 | 10595 ft | 160 kts | 298° |
| 2026-05-05 14:08 | 55.44286 | -2.93872 | 10352 ft | 159 kts | 298° |
| 2026-05-05 14:08 | 55.44824 | -2.95566 | 10109 ft | 158 kts | 298° |
| 2026-05-05 14:08 | 55.45362 | -2.97262 | 9857 ft | 159 kts | 298° |
| 2026-05-05 14:08 | 55.46019 | -2.98821 | 9580 ft | 160 kts | 314° |
| 2026-05-05 14:09 | 55.46920 | -2.99980 | 9316 ft | 163 kts | 329° |
| 2026-05-05 14:09 | 55.47969 | -3.00654 | 9047 ft | 155 kts | 338° |
| 2026-05-05 14:09 | 55.48965 | -3.01196 | 8783 ft | 145 kts | 336° |
| 2026-05-05 14:09 | 55.49892 | -3.01709 | 8517 ft | 136 kts | 337° |
| 2026-05-05 14:10 | 55.50776 | -3.02201 | 8246 ft | 130 kts | 339° |
| 2026-05-05 14:10 | 55.51658 | -3.02693 | 8003 ft | 140 kts | 337° |
| 2026-05-05 14:10 | 55.52637 | -3.03236 | 7746 ft | 151 kts | 339° |
| 2026-05-05 14:10 | 55.53663 | -3.03803 | 7492 ft | 157 kts | 339° |
| 2026-05-05 14:11 | 55.54697 | -3.04372 | 7247 ft | 156 kts | 340° |
| 2026-05-05 14:11 | 55.55723 | -3.04942 | 7151 ft | 148 kts | 339° |
| 2026-05-05 14:11 | 55.56678 | -3.05471 | 7135 ft | 139 kts | 340° |
| 2026-05-05 14:11 | 55.57647 | -3.06014 | 7147 ft | 156 kts | 339° |
| 2026-05-05 14:12 | 55.58727 | -3.06611 | 7144 ft | 163 kts | 341° |
| 2026-05-05 14:12 | 55.59766 | -3.07183 | 7138 ft | 151 kts | 340° |
| 2026-05-05 14:12 | 55.60770 | -3.07742 | 7139 ft | 150 kts | 340° |
| 2026-05-05 14:12 | 55.61767 | -3.08295 | 7138 ft | 150 kts | 339° |
| 2026-05-05 14:13 | 55.62758 | -3.08847 | 7136 ft | 148 kts | 339° |
| 2026-05-05 14:13 | 55.63742 | -3.09396 | 7137 ft | 148 kts | 340° |
| 2026-05-05 14:13 | 55.64728 | -3.09945 | 7144 ft | 149 kts | 339° |
| 2026-05-05 14:13 | 55.65719 | -3.10497 | 7143 ft | 150 kts | 340° |
| 2026-05-05 14:14 | 55.66712 | -3.11050 | 7147 ft | 150 kts | 339° |
| 2026-05-05 14:14 | 55.67698 | -3.11600 | 7145 ft | 148 kts | 340° |
| 2026-05-05 14:14 | 55.68663 | -3.12140 | 7146 ft | 147 kts | 339° |
| 2026-05-05 14:14 | 55.69642 | -3.12687 | 7147 ft | 148 kts | 340° |
| 2026-05-05 14:15 | 55.70621 | -3.13233 | 7145 ft | 148 kts | 339° |
| 2026-05-05 14:15 | 55.71617 | -3.13790 | 7148 ft | 152 kts | 340° |
| 2026-05-05 14:15 | 55.72638 | -3.14386 | 7145 ft | 156 kts | 339° |
| 2026-05-05 14:15 | 55.73675 | -3.14983 | 7150 ft | 157 kts | 340° |
| 2026-05-05 14:16 | 55.74723 | -3.15583 | 7152 ft | 158 kts | 339° |
| 2026-05-05 14:16 | 55.75770 | -3.16166 | 7154 ft | 158 kts | 340° |
| 2026-05-05 14:16 | 55.76816 | -3.16762 | 7153 ft | 157 kts | 339° |
| 2026-05-05 14:16 | 55.77854 | -3.17359 | 7151 ft | 157 kts | 340° |
| 2026-05-05 14:17 | 55.78886 | -3.17967 | 7153 ft | 157 kts | 340° |
| 2026-05-05 14:17 | 55.79959 | -3.18595 | 6906 ft | 164 kts | 339° |
| 2026-05-05 14:17 | 55.81038 | -3.19230 | 6655 ft | 159 kts | 340° |
| 2026-05-05 14:17 | 55.82046 | -3.19833 | 6394 ft | 147 kts | 339° |
| 2026-05-05 14:18 | 55.82989 | -3.20413 | 6125 ft | 140 kts | 340° |
| 2026-05-05 14:18 | 55.83886 | -3.21001 | 5854 ft | 134 kts | 337° |
| 2026-05-05 14:18 | 55.84472 | -3.22212 | 5582 ft | 135 kts | 285° |
| 2026-05-05 14:18 | 55.84267 | -3.23828 | 5333 ft | 147 kts | 241° |
| 2026-05-05 14:19 | 55.83690 | -3.25409 | 5078 ft | 157 kts | 238° |
| 2026-05-05 14:19 | 55.83075 | -3.27080 | 4821 ft | 165 kts | 238° |
| 2026-05-05 14:19 | 55.82457 | -3.28796 | 4547 ft | 160 kts | 240° |
| 2026-05-05 14:19 | 55.81878 | -3.30419 | 4281 ft | 155 kts | 240° |
| 2026-05-05 14:20 | 55.81281 | -3.32080 | 4153 ft | 157 kts | 239° |
| 2026-05-05 14:20 | 55.80702 | -3.33684 | 4158 ft | 152 kts | 239° |
| 2026-05-05 14:20 | 55.80146 | -3.35233 | 4164 ft | 145 kts | 238° |
| 2026-05-05 14:20 | 55.79582 | -3.36812 | 4163 ft | 163 kts | 238° |
| 2026-05-05 14:21 | 55.79000 | -3.38480 | 4150 ft | 154 kts | 239° |
| 2026-05-05 14:21 | 55.78448 | -3.40063 | 4147 ft | 149 kts | 239° |
| 2026-05-05 14:21 | 55.77906 | -3.41606 | 4153 ft | 147 kts | 239° |
| 2026-05-05 14:21 | 55.77376 | -3.43141 | 4144 ft | 142 kts | 239° |
| 2026-05-05 14:22 | 55.76863 | -3.44623 | 4144 ft | 139 kts | 239° |
| 2026-05-05 14:22 | 55.76359 | -3.46055 | 4144 ft | 134 kts | 239° |
| 2026-05-05 14:22 | 55.75877 | -3.47461 | 4144 ft | 133 kts | 239° |
| 2026-05-05 14:22 | 55.75393 | -3.48867 | 4151 ft | 141 kts | 239° |
| 2026-05-05 14:23 | 55.74832 | -3.50497 | 4157 ft | 166 kts | 239° |
| 2026-05-05 14:23 | 55.74209 | -3.52311 | 4147 ft | 175 kts | 240° |
| 2026-05-05 14:23 | 55.73598 | -3.54099 | 4148 ft | 169 kts | 239° |
| 2026-05-05 14:23 | 55.73014 | -3.55877 | 4141 ft | 165 kts | 248° |
| 2026-05-05 14:24 | 55.73033 | -3.57827 | 4136 ft | 160 kts | 297° |
| 2026-05-05 14:24 | 55.73816 | -3.59057 | 4135 ft | 149 kts | 347° |
| 2026-05-05 14:24 | 55.74827 | -3.59300 | 4136 ft | 146 kts | 355° |
| 2026-05-05 14:24 | 55.75784 | -3.59916 | 4134 ft | 148 kts | 335° |
| 2026-05-05 14:25 | 55.76668 | -3.60838 | 4133 ft | 146 kts | 333° |
| 2026-05-05 14:25 | 55.77530 | -3.61785 | 4135 ft | 145 kts | 333° |
| 2026-05-05 14:25 | 55.78389 | -3.62724 | 4136 ft | 146 kts | 332° |
| 2026-05-05 14:25 | 55.79252 | -3.63680 | 4138 ft | 147 kts | 333° |
| 2026-05-05 14:26 | 55.80127 | -3.64639 | 4139 ft | 148 kts | 334° |
| 2026-05-05 14:26 | 55.80988 | -3.65653 | 4135 ft | 151 kts | 321° |
| 2026-05-05 14:26 | 55.81823 | -3.66684 | 4142 ft | 144 kts | 352° |
| 2026-05-05 14:26 | 55.82811 | -3.66862 | 4140 ft | 143 kts | 359° |
| 2026-05-05 14:27 | 55.83810 | -3.66975 | 4140 ft | 144 kts | 359° |
| 2026-05-05 14:27 | 55.84798 | -3.66973 | 4140 ft | 142 kts | 18° |
| 2026-05-05 14:27 | 55.85483 | -3.65829 | 4149 ft | 139 kts | 64° |
| 2026-05-05 14:27 | 55.85900 | -3.64286 | 4152 ft | 140 kts | 62° |
| 2026-05-05 14:28 | 55.86361 | -3.62755 | 4151 ft | 141 kts | 60° |
| 2026-05-05 14:28 | 55.86852 | -3.61232 | 4158 ft | 142 kts | 58° |
| 2026-05-05 14:28 | 55.87362 | -3.59706 | 4166 ft | 144 kts | 57° |
| 2026-05-05 14:28 | 55.87879 | -3.58201 | 4157 ft | 138 kts | 58° |
| 2026-05-05 14:29 | 55.88362 | -3.56776 | 4148 ft | 131 kts | 58° |
| 2026-05-05 14:29 | 55.88822 | -3.55435 | 4035 ft | 111 kts | 58° |
| 2026-05-05 14:29 | 55.89145 | -3.54538 | 3872 ft | 72 kts | 56° |
| 2026-05-05 14:29 | 55.89430 | -3.53824 | 3621 ft | 66 kts | 54° |
| 2026-05-05 14:30 | 55.89680 | -3.53162 | 3401 ft | 63 kts | 56° |
| 2026-05-05 14:30 | 55.89940 | -3.52471 | 3153 ft | 77 kts | 59° |
| 2026-05-05 14:30 | 55.90218 | -3.51648 | 2923 ft | 80 kts | 63° |
| 2026-05-05 14:30 | 55.90512 | -3.50780 | 2715 ft | 83 kts | 62° |
| 2026-05-05 14:31 | 55.90782 | -3.49935 | 2604 ft | 74 kts | 67° |
| 2026-05-05 14:31 | 55.91054 | -3.49109 | 2360 ft | 79 kts | 64° |
| 2026-05-05 14:31 | 55.91365 | -3.48273 | 1951 ft | 87 kts | 64° |
| 2026-05-05 14:31 | 55.91667 | -3.47361 | 1640 ft | 77 kts | 65° |
| 2026-05-05 14:32 | 55.91901 | -3.46570 | 1341 ft | 72 kts | 69° |
| 2026-05-05 14:32 | 55.92167 | -3.45807 | 1147 ft | 71 kts | 63° |
| 2026-05-05 14:32 | 55.92431 | -3.45001 | 1061 ft | 80 kts | 66° |
| 2026-05-05 14:32 | 55.92713 | -3.44134 | 883 ft | 77 kts | 63° |
| 2026-05-05 14:33 | 55.92960 | -3.43369 | 826 ft | 67 kts | 66° |
| 2026-05-05 14:33 | 55.93189 | -3.42650 | 710 ft | 68 kts | 65° |
| 2026-05-05 14:33 | 55.93430 | -3.41904 | 601 ft | 78 kts | 64° |
| 2026-05-05 14:33 | 55.93686 | -3.41088 | 479 ft | 80 kts | 59° |
| 2026-05-05 14:34 | 55.93990 | -3.40280 | 365 ft | 74 kts | 65° |
| 2026-05-05 14:34 | 55.94231 | -3.39554 | 275 ft | 63 kts | 60° |
| 2026-05-05 14:34 | 55.94468 | -3.38835 | 194 ft | 66 kts | 63° |
| 2026-05-05 14:34 | 55.94693 | -3.38165 | 117 ft | 59 kts | 64° |
| 2026-05-05 14:35 | 55.94870 | -3.37633 | 108 ft | 42 kts | 58° |
| 2026-05-05 14:35 | 55.95023 | -3.37178 | 101 ft | 47 kts | 60° |
| 2026-05-05 14:35 | 55.95189 | -3.36688 | 104 ft | 42 kts | 60° |
| 2026-05-05 14:35 | 55.95259 | -3.36414 | 96 ft | 12 kts | 122° |
| 2026-05-05 14:36 | 55.95191 | -3.36345 | 97 ft | 10 kts | 147° |
| 2026-05-05 14:36 | 55.95152 | -3.36278 | 99 ft | 8 kts | 113° |
| 2026-05-05 14:36 | 55.95131 | -3.36197 | 99 ft | 11 kts | 116° |
| 2026-05-05 14:36 | 55.95109 | -3.36057 | 100 ft | 13 kts | 106° |
| 2026-05-05 14:37 | 55.95069 | -3.35903 | 101 ft | 16 kts | 117° |
| 2026-05-05 14:37 | 55.95060 | -3.35736 | 102 ft | 12 kts | 92° |
| 2026-05-05 14:37 | 55.95017 | -3.35564 | 104 ft | 20 kts | 118° |
| 2026-05-05 14:37 | 55.94997 | -3.35406 | 104 ft | 10 kts | 43° |
| 2026-05-05 14:38 | 55.95077 | -3.35306 | 109 ft | 11 kts | 56° |
| 2026-05-05 14:38 | 55.95115 | -3.35233 | 110 ft | 0 kts | 43° |